createdAt,value
2023-04-30T00:01:39.938Z,11.66
2023-04-30T00:04:09.987Z,11.65
2023-04-30T00:06:40.079Z,11.60
2023-04-30T00:09:10.202Z,11.62
2023-04-30T00:11:40.974Z,11.63
2023-04-30T00:14:10.583Z,11.60
2023-04-30T00:16:40.148Z,11.58
2023-04-30T00:19:10.396Z,11.58
2023-04-30T00:21:39.390Z,11.58
2023-04-30T00:24:09.342Z,11.59
2023-04-30T00:26:40.758Z,11.58
2023-04-30T00:29:10.666Z,11.58
2023-04-30T00:31:39.307Z,11.56
2023-04-30T00:34:08.475Z,11.55
2023-04-30T00:36:38.433Z,11.55
2023-04-30T00:39:08.025Z,11.55
2023-04-30T00:41:40.232Z,11.54
2023-04-30T00:44:10.089Z,11.54
2023-04-30T00:46:40.531Z,11.54
2023-04-30T00:49:10.644Z,11.52
2023-04-30T00:51:44.135Z,11.51
2023-04-30T00:54:13.958Z,11.48
2023-04-30T00:56:45.017Z,11.49
2023-04-30T00:59:16.424Z,11.49
2023-04-30T01:01:46.186Z,11.48
2023-04-30T01:04:16.412Z,11.45
2023-04-30T01:06:46.696Z,11.46
2023-04-30T01:09:16.868Z,11.44
2023-04-30T01:12:04.508Z,11.44
2023-04-30T01:14:50.778Z,11.43
2023-04-30T01:17:30.063Z,11.44
2023-04-30T01:20:03.620Z,11.41
2023-04-30T01:22:45.393Z,11.37
2023-04-30T01:25:53.833Z,11.34
2023-04-30T01:28:26.777Z,11.33
2023-04-30T01:30:56.747Z,11.34
2023-04-30T01:33:27.253Z,11.35
2023-04-30T01:36:36.721Z,11.34
2023-04-30T01:39:27.611Z,11.35
2023-04-30T01:42:10.025Z,11.35
2023-04-30T01:45:04.265Z,11.34
2023-04-30T01:47:41.609Z,11.35
2023-04-30T01:50:29.626Z,11.34
2023-04-30T01:53:03.346Z,11.34
2023-04-30T01:55:43.149Z,11.34
2023-04-30T01:58:16.960Z,11.35
2023-04-30T02:00:48.987Z,11.35
2023-04-30T02:03:19.197Z,11.35
2023-04-30T02:05:49.476Z,11.35
2023-04-30T02:08:20.100Z,11.35
2023-04-30T02:10:49.772Z,11.34
2023-04-30T02:13:19.730Z,11.33
2023-04-30T02:15:52.283Z,11.33
2023-04-30T02:18:23.044Z,11.32
2023-04-30T02:20:53.534Z,11.31
2023-04-30T02:23:24.051Z,11.32
2023-04-30T02:25:54.558Z,11.30
2023-04-30T02:28:25.019Z,11.32
2023-04-30T02:30:56.666Z,11.31
2023-04-30T02:33:27.376Z,11.27
2023-04-30T02:35:57.770Z,11.28
2023-04-30T02:38:27.762Z,11.28
2023-04-30T02:40:57.680Z,11.29
2023-04-30T02:43:27.305Z,11.29
2023-04-30T02:45:58.705Z,11.28
2023-04-30T02:48:29.350Z,11.25
2023-04-30T02:50:59.786Z,11.25
2023-04-30T02:53:29.938Z,11.25
2023-04-30T02:56:00.693Z,11.23
2023-04-30T02:58:31.134Z,11.22
2023-04-30T03:01:02.549Z,11.19
2023-04-30T03:03:33.112Z,11.18
2023-04-30T03:06:02.891Z,11.18
2023-04-30T03:08:32.989Z,11.19
2023-04-30T03:11:02.715Z,11.18
2023-04-30T03:13:31.530Z,11.14
2023-04-30T03:16:05.374Z,11.16
2023-04-30T03:18:35.017Z,11.12
2023-04-30T03:21:04.975Z,11.09
2023-04-30T03:23:34.420Z,11.07
2023-04-30T03:26:04.313Z,11.11
2023-04-30T03:28:34.222Z,11.10
2023-04-30T03:31:06.996Z,11.08
2023-04-30T03:33:37.311Z,11.07
2023-04-30T03:36:09.996Z,11.05
2023-04-30T03:38:40.387Z,11.06
2023-04-30T03:41:10.810Z,11.06
2023-04-30T03:43:41.714Z,11.06
2023-04-30T03:46:12.686Z,11.07
2023-04-30T03:48:42.880Z,11.07
2023-04-30T03:51:13.015Z,11.06
2023-04-30T03:53:43.574Z,11.07
2023-04-30T03:56:14.563Z,11.07
2023-04-30T03:58:45.163Z,11.06
2023-04-30T04:01:16.876Z,11.06
2023-04-30T04:03:46.873Z,11.06
2023-04-30T04:06:15.952Z,11.08
2023-04-30T04:08:46.017Z,11.07
2023-04-30T04:11:15.772Z,11.05
2023-04-30T04:13:45.273Z,11.05
2023-04-30T04:16:16.225Z,11.05
2023-04-30T04:18:46.711Z,11.06
2023-04-30T04:21:18.006Z,11.06
2023-04-30T04:23:47.966Z,11.06
2023-04-30T04:26:20.323Z,11.06
2023-04-30T04:28:50.886Z,11.04
2023-04-30T04:31:23.205Z,11.04
2023-04-30T04:33:58.185Z,11.04
2023-04-30T04:36:29.292Z,11.06
2023-04-30T04:39:02.523Z,11.08
2023-04-30T04:41:32.731Z,11.08
2023-04-30T04:44:04.157Z,11.09
2023-04-30T04:46:39.166Z,11.10
2023-04-30T04:49:10.282Z,11.09
2023-04-30T04:51:41.339Z,11.11
2023-04-30T04:54:12.130Z,11.09
2023-04-30T04:56:43.557Z,11.14
2023-04-30T04:59:13.069Z,11.14
2023-04-30T05:01:44.033Z,11.15
2023-04-30T05:04:14.668Z,11.14
2023-04-30T05:06:44.708Z,11.15
2023-04-30T05:09:15.744Z,11.19
2023-04-30T05:11:46.867Z,11.19
2023-04-30T05:14:17.002Z,11.20
2023-04-30T05:16:49.299Z,11.22
2023-04-30T05:19:20.289Z,11.22
2023-04-30T05:21:50.809Z,11.21
2023-04-30T05:24:20.790Z,11.22
2023-04-30T05:26:50.098Z,11.24
2023-04-30T05:29:20.009Z,11.26
2023-04-30T05:31:51.929Z,11.24
2023-04-30T05:34:21.875Z,11.24
2023-04-30T05:36:52.310Z,11.29
2023-04-30T05:39:22.633Z,11.33
2023-04-30T05:41:53.499Z,11.36
2023-04-30T05:44:24.006Z,11.39
2023-04-30T05:46:55.962Z,11.40
2023-04-30T05:49:25.717Z,11.43
2023-04-30T05:51:55.795Z,11.44
2023-04-30T05:54:26.109Z,11.42
2023-04-30T05:56:58.514Z,11.45
2023-04-30T05:59:27.386Z,11.44
2023-04-30T06:02:00.342Z,11.48
2023-04-30T06:04:29.934Z,11.48
2023-04-30T06:07:00.647Z,11.52
2023-04-30T06:09:30.960Z,11.56
2023-04-30T06:12:03.141Z,11.60
2023-04-30T06:14:33.994Z,11.61
2023-04-30T06:17:05.999Z,11.62
2023-04-30T06:19:36.865Z,11.64
2023-04-30T06:22:07.146Z,11.63
2023-04-30T06:24:36.266Z,11.63
2023-04-30T06:27:07.504Z,11.63
2023-04-30T06:29:37.723Z,11.61
2023-04-30T06:32:09.524Z,11.60
2023-04-30T06:34:40.570Z,11.63
2023-04-30T06:37:13.184Z,11.61
2023-04-30T06:39:42.348Z,11.65
2023-04-30T06:42:12.043Z,11.63
2023-04-30T06:44:43.018Z,11.60
2023-04-30T06:47:13.597Z,11.59
2023-04-30T06:49:44.039Z,11.62
2023-04-30T06:52:14.169Z,11.63
2023-04-30T06:54:43.923Z,11.66
2023-04-30T06:57:14.681Z,11.67
2023-04-30T06:59:45.124Z,11.72
2023-04-30T07:02:16.741Z,11.76
2023-04-30T07:04:46.395Z,11.79
2023-04-30T07:07:16.804Z,11.81
2023-04-30T07:09:50.326Z,11.84
2023-04-30T07:12:23.150Z,11.83
2023-04-30T07:14:52.645Z,11.85
2023-04-30T07:17:24.194Z,11.89
2023-04-30T07:19:56.079Z,11.93
2023-04-30T07:22:25.407Z,11.96
2023-04-30T07:24:56.690Z,11.97
2023-04-30T07:27:25.336Z,12.00
2023-04-30T07:29:56.327Z,12.04
2023-04-30T07:32:28.122Z,12.07
2023-04-30T07:34:58.725Z,12.13
2023-04-30T07:37:29.054Z,12.16
2023-04-30T07:39:58.618Z,12.19
2023-04-30T07:42:28.199Z,12.24
2023-04-30T07:44:56.898Z,12.28
2023-04-30T07:47:28.445Z,12.34
2023-04-30T07:49:59.090Z,12.35
2023-04-30T07:52:28.670Z,12.40
2023-04-30T07:54:57.646Z,12.41
2023-04-30T07:57:28.358Z,12.43
2023-04-30T07:59:58.560Z,12.45
2023-04-30T08:02:29.222Z,12.49
2023-04-30T08:04:59.369Z,12.51
2023-04-30T08:07:29.037Z,12.54
2023-04-30T08:09:57.968Z,12.54
2023-04-30T08:12:27.120Z,12.60
2023-04-30T08:15:02.185Z,12.67
2023-04-30T08:17:33.578Z,12.74
2023-04-30T08:20:03.247Z,12.79
2023-04-30T08:22:33.974Z,12.81
2023-04-30T08:25:03.707Z,12.82
2023-04-30T08:27:33.935Z,12.86
2023-04-30T08:30:03.883Z,12.89
2023-04-30T08:32:38.875Z,12.95
2023-04-30T08:35:09.753Z,13.02
2023-04-30T08:37:38.735Z,13.08
2023-04-30T08:40:12.740Z,13.17
2023-04-30T08:42:52.876Z,13.25
2023-04-30T08:45:24.414Z,13.34
2023-04-30T08:47:55.859Z,13.37
2023-04-30T08:50:24.810Z,13.42
2023-04-30T08:52:53.289Z,13.54
2023-04-30T08:55:23.045Z,13.58
2023-04-30T08:57:52.444Z,13.67
2023-04-30T09:00:21.135Z,13.70
2023-04-30T09:02:54.612Z,13.79
2023-04-30T09:05:23.652Z,13.86
2023-04-30T09:08:02.964Z,13.92
2023-04-30T09:10:35.144Z,13.98
2023-04-30T09:13:07.673Z,14.04
2023-04-30T09:15:38.760Z,14.05
2023-04-30T09:18:18.045Z,14.10
2023-04-30T09:21:01.423Z,14.09
2023-04-30T09:23:32.235Z,14.08
2023-04-30T09:26:01.939Z,14.10
2023-04-30T09:28:32.327Z,14.12
2023-04-30T09:31:01.214Z,14.17
2023-04-30T09:33:47.894Z,14.19
2023-04-30T09:36:18.616Z,14.28
2023-04-30T09:38:49.061Z,14.40
2023-04-30T09:41:26.929Z,14.47
2023-04-30T09:43:55.887Z,14.52
2023-04-30T09:46:33.572Z,14.50
2023-04-30T09:49:07.325Z,14.49
2023-04-30T09:51:37.544Z,14.51
2023-04-30T09:54:13.778Z,14.53
2023-04-30T09:56:43.673Z,14.50
2023-04-30T09:59:15.664Z,14.53
2023-04-30T10:01:45.533Z,14.59
2023-04-30T10:04:16.803Z,14.64
2023-04-30T10:06:47.798Z,14.71
2023-04-30T10:09:18.466Z,14.77
2023-04-30T10:11:48.440Z,14.82
2023-04-30T10:14:21.606Z,14.84
2023-04-30T10:16:59.427Z,14.88
2023-04-30T10:19:38.050Z,14.90
2023-04-30T10:22:08.836Z,14.94
2023-04-30T10:24:39.125Z,14.98
2023-04-30T10:27:08.720Z,14.98
2023-04-30T10:29:38.051Z,15.00
2023-04-30T10:32:09.921Z,14.97
2023-04-30T10:34:55.072Z,14.90
2023-04-30T10:37:34.514Z,14.90
2023-04-30T10:40:05.278Z,14.94
2023-04-30T10:42:38.014Z,14.96
2023-04-30T10:45:11.733Z,14.92
2023-04-30T10:47:46.250Z,14.93
2023-04-30T10:50:18.085Z,14.94
2023-04-30T10:52:47.682Z,14.97
2023-04-30T10:55:19.537Z,15.02
2023-04-30T10:57:51.587Z,15.00
2023-04-30T11:00:26.408Z,15.07
2023-04-30T11:03:04.047Z,15.10
2023-04-30T11:05:39.571Z,15.18
2023-04-30T11:08:13.189Z,15.24
2023-04-30T11:11:00.696Z,15.28
2023-04-30T11:13:29.628Z,15.24
2023-04-30T11:16:06.093Z,15.31
2023-04-30T11:18:34.889Z,15.36
2023-04-30T11:21:07.320Z,15.38
2023-04-30T11:23:41.599Z,15.41
2023-04-30T11:26:11.300Z,15.46
2023-04-30T11:28:40.102Z,15.45
2023-04-30T11:31:09.743Z,15.49
2023-04-30T11:33:42.097Z,15.55
2023-04-30T11:36:12.510Z,15.61
2023-04-30T11:38:43.383Z,15.64
2023-04-30T11:41:15.049Z,15.69
2023-04-30T11:43:45.577Z,15.77
2023-04-30T11:46:19.025Z,15.86
2023-04-30T11:48:49.817Z,15.90
2023-04-30T11:51:23.135Z,15.96
2023-04-30T11:53:53.732Z,16.04
2023-04-30T11:56:25.394Z,16.08
2023-04-30T11:58:57.392Z,16.14
2023-04-30T12:01:29.549Z,16.21
2023-04-30T12:03:59.570Z,16.25
2023-04-30T12:06:32.610Z,16.27
2023-04-30T12:09:08.368Z,16.32
2023-04-30T12:11:38.298Z,16.39
2023-04-30T12:14:10.791Z,16.44
2023-04-30T12:16:49.263Z,16.50
2023-04-30T12:19:21.312Z,16.59
2023-04-30T12:21:55.026Z,16.64
2023-04-30T12:24:28.828Z,16.60
2023-04-30T12:27:01.981Z,16.60
2023-04-30T12:29:31.147Z,16.59
2023-04-30T12:32:02.472Z,16.56
2023-04-30T12:34:33.833Z,16.53
2023-04-30T12:37:05.500Z,16.60
2023-04-30T12:39:36.644Z,16.64
2023-04-30T12:42:06.881Z,16.67
2023-04-30T12:44:45.733Z,16.67
2023-04-30T12:47:16.233Z,16.66
2023-04-30T12:49:48.264Z,16.69
2023-04-30T12:52:18.681Z,16.71
2023-04-30T12:54:48.158Z,16.78
2023-04-30T12:57:17.681Z,16.79
2023-04-30T13:00:01.509Z,16.75
2023-04-30T13:02:32.792Z,16.72
2023-04-30T13:05:03.068Z,16.70
2023-04-30T13:07:41.325Z,16.72
2023-04-30T13:10:14.431Z,16.77
2023-04-30T13:12:44.957Z,16.79
2023-04-30T13:15:14.498Z,16.87
2023-04-30T13:17:45.366Z,16.91
2023-04-30T13:20:16.844Z,16.95
2023-04-30T13:22:47.653Z,17.02
2023-04-30T13:25:17.512Z,17.07
2023-04-30T13:27:46.324Z,17.10
2023-04-30T13:30:16.402Z,17.06
2023-04-30T13:32:46.729Z,17.09
2023-04-30T13:35:16.337Z,17.13
2023-04-30T13:37:48.138Z,17.20
2023-04-30T13:40:17.714Z,17.24
2023-04-30T13:42:48.897Z,17.26
2023-04-30T13:45:17.987Z,17.38
2023-04-30T13:47:47.965Z,17.44
2023-04-30T13:50:18.172Z,17.55
2023-04-30T13:52:49.378Z,17.66
2023-04-30T13:55:18.760Z,17.69
2023-04-30T13:57:48.223Z,17.70
2023-04-30T14:00:22.167Z,17.70
2023-04-30T14:02:52.892Z,17.63
2023-04-30T14:05:23.067Z,17.56
2023-04-30T14:07:55.038Z,17.59
2023-04-30T14:10:25.035Z,17.71
2023-04-30T14:12:56.039Z,17.78
2023-04-30T14:15:25.830Z,17.88
2023-04-30T14:17:55.907Z,17.92
2023-04-30T14:20:26.730Z,17.97
2023-04-30T14:22:59.418Z,17.99
2023-04-30T14:25:31.078Z,17.97
2023-04-30T14:28:01.397Z,17.91
2023-04-30T14:30:33.512Z,17.91
2023-04-30T14:33:03.223Z,17.96
2023-04-30T14:35:34.127Z,18.03
2023-04-30T14:38:06.163Z,18.09
2023-04-30T14:40:36.273Z,18.17
2023-04-30T14:43:08.725Z,18.21
2023-04-30T14:45:38.867Z,18.24
2023-04-30T14:48:10.201Z,18.22
2023-04-30T14:50:39.987Z,18.24
2023-04-30T14:53:12.102Z,18.21
2023-04-30T14:55:41.572Z,18.24
2023-04-30T14:58:12.056Z,18.18
2023-04-30T15:00:40.987Z,18.17
2023-04-30T15:03:12.088Z,18.18
2023-04-30T15:05:43.034Z,18.22
2023-04-30T15:08:13.424Z,18.28
2023-04-30T15:10:43.008Z,18.34
2023-04-30T15:13:14.237Z,18.38
2023-04-30T15:15:47.630Z,18.47
2023-04-30T15:18:16.765Z,18.51
2023-04-30T15:20:47.215Z,18.45
2023-04-30T15:23:18.612Z,18.42
2023-04-30T15:25:48.167Z,18.42
2023-04-30T15:28:17.410Z,18.41
2023-04-30T15:30:47.278Z,18.40
2023-04-30T15:33:19.343Z,18.41
2023-04-30T15:35:49.922Z,18.44
2023-04-30T15:38:21.886Z,18.41
2023-04-30T15:40:51.947Z,18.45
2023-04-30T15:43:23.975Z,18.48
2023-04-30T15:45:52.963Z,18.45
2023-04-30T15:48:22.356Z,18.47
2023-04-30T15:50:52.532Z,18.51
2023-04-30T15:53:23.429Z,18.50
2023-04-30T15:55:53.320Z,18.48
2023-04-30T15:58:23.503Z,18.51
2023-04-30T16:00:52.602Z,18.53
2023-04-30T16:03:22.279Z,18.55
2023-04-30T16:05:52.474Z,18.52
2023-04-30T16:08:22.809Z,18.44
2023-04-30T16:10:52.849Z,18.37
2023-04-30T16:13:22.231Z,18.34
2023-04-30T16:15:52.664Z,18.34
2023-04-30T16:18:23.608Z,18.32
2023-04-30T16:20:53.011Z,18.30
2023-04-30T16:23:23.433Z,18.21
2023-04-30T16:25:53.401Z,18.16
2023-04-30T16:28:24.495Z,18.14
2023-04-30T16:30:54.181Z,18.16
2023-04-30T16:33:25.183Z,18.11
2023-04-30T16:35:55.853Z,18.07
2023-04-30T16:38:27.767Z,18.10
2023-04-30T16:40:57.284Z,18.14
2023-04-30T16:43:27.367Z,18.14
2023-04-30T16:45:57.031Z,18.16
2023-04-30T16:48:27.211Z,18.15
2023-04-30T16:50:57.135Z,18.13
2023-04-30T16:53:28.444Z,18.10
2023-04-30T16:55:57.006Z,18.10
2023-04-30T16:58:27.137Z,18.07
2023-04-30T17:00:57.532Z,18.05
2023-04-30T17:03:26.358Z,18.07
2023-04-30T17:05:56.164Z,18.05
2023-04-30T17:08:27.116Z,18.02
2023-04-30T17:10:56.783Z,17.95
2023-04-30T17:13:26.337Z,17.94
2023-04-30T17:16:01.703Z,17.96
2023-04-30T17:18:31.994Z,17.91
2023-04-30T17:21:01.012Z,17.85
2023-04-30T17:23:32.495Z,17.86
2023-04-30T17:26:02.079Z,17.87
2023-04-30T17:28:30.465Z,17.83
2023-04-30T17:31:03.881Z,17.78
2023-04-30T17:33:33.326Z,17.75
2023-04-30T17:36:02.800Z,17.76
2023-04-30T17:38:32.591Z,17.73
2023-04-30T17:41:02.499Z,17.69
2023-04-30T17:43:32.702Z,17.67
2023-04-30T17:46:02.911Z,17.65
2023-04-30T17:48:32.348Z,17.63
2023-04-30T17:51:02.338Z,17.55
2023-04-30T17:53:33.389Z,17.56
2023-04-30T17:56:03.723Z,17.54
2023-04-30T17:58:33.343Z,17.47
2023-04-30T18:01:03.646Z,17.46
2023-04-30T18:03:33.972Z,17.44
2023-04-30T18:06:04.247Z,17.35
2023-04-30T18:08:35.135Z,17.36
2023-04-30T18:11:04.156Z,17.34
2023-04-30T18:13:33.096Z,17.26
2023-04-30T18:16:02.219Z,17.19
2023-04-30T18:18:32.273Z,17.20
2023-04-30T18:21:01.787Z,17.16
2023-04-30T18:23:31.784Z,17.10
2023-04-30T18:26:03.100Z,17.04
2023-04-30T18:28:33.991Z,16.94
2023-04-30T18:31:03.445Z,16.86
2023-04-30T18:33:32.992Z,16.76
2023-04-30T18:36:05.586Z,16.67
2023-04-30T18:38:35.736Z,16.59
2023-04-30T18:41:08.202Z,16.49
2023-04-30T18:43:40.554Z,16.35
2023-04-30T18:46:10.727Z,16.25
2023-04-30T18:48:41.082Z,16.14
2023-04-30T18:51:10.088Z,16.04
2023-04-30T18:53:39.055Z,15.97
2023-04-30T18:56:10.912Z,15.90
2023-04-30T18:58:41.340Z,15.79
2023-04-30T19:01:11.043Z,15.65
2023-04-30T19:03:42.041Z,15.53
2023-04-30T19:06:11.800Z,15.50
2023-04-30T19:08:45.586Z,15.38
2023-04-30T19:11:19.120Z,15.33
2023-04-30T19:13:49.103Z,15.31
2023-04-30T19:16:18.685Z,15.27
2023-04-30T19:18:47.585Z,15.16
2023-04-30T19:21:18.176Z,15.00
2023-04-30T19:23:47.309Z,14.99
2023-04-30T19:26:18.222Z,15.00
2023-04-30T19:28:48.975Z,14.97
2023-04-30T19:31:18.681Z,14.95
2023-04-30T19:33:48.164Z,14.86
2023-04-30T19:36:19.259Z,14.82
2023-04-30T19:38:48.690Z,14.72
2023-04-30T19:41:18.993Z,14.69
2023-04-30T19:43:47.951Z,14.50
2023-04-30T19:46:17.344Z,14.49
2023-04-30T19:48:47.605Z,14.50
2023-04-30T19:51:17.269Z,14.48
2023-04-30T19:53:47.845Z,14.34
2023-04-30T19:56:19.290Z,14.25
2023-04-30T19:58:49.065Z,14.20
2023-04-30T20:01:19.599Z,14.22
2023-04-30T20:03:50.284Z,14.20
2023-04-30T20:06:20.596Z,14.09
2023-04-30T20:08:49.443Z,14.01
2023-04-30T20:11:23.392Z,13.95
2023-04-30T20:13:51.930Z,13.92
2023-04-30T20:16:22.438Z,13.92
2023-04-30T20:18:51.465Z,13.85
2023-04-30T20:21:25.077Z,13.78
2023-04-30T20:23:55.200Z,13.63
2023-04-30T20:26:27.382Z,13.67
2023-04-30T20:28:57.433Z,13.57
2023-04-30T20:31:31.707Z,13.48
2023-04-30T20:34:02.291Z,13.44
2023-04-30T20:36:32.880Z,13.42
2023-04-30T20:39:01.823Z,13.47
2023-04-30T20:41:33.003Z,13.46
2023-04-30T20:44:02.060Z,13.34
2023-04-30T20:46:32.833Z,13.33
2023-04-30T20:49:05.762Z,13.26
2023-04-30T20:51:34.664Z,13.21
2023-04-30T20:54:03.850Z,13.18
2023-04-30T20:56:34.273Z,13.05
2023-04-30T20:59:05.347Z,12.91
2023-04-30T21:01:34.472Z,12.95
2023-04-30T21:04:05.271Z,12.94
2023-04-30T21:06:34.857Z,12.82
2023-04-30T21:09:04.615Z,12.86
2023-04-30T21:11:35.108Z,12.86
2023-04-30T21:14:04.715Z,12.80
2023-04-30T21:16:34.168Z,12.74
2023-04-30T21:19:04.342Z,12.65
2023-04-30T21:21:34.424Z,12.60
2023-04-30T21:24:05.168Z,12.67
2023-04-30T21:26:35.539Z,12.74
2023-04-30T21:29:05.006Z,12.68
2023-04-30T21:31:34.871Z,12.66
2023-04-30T21:34:04.354Z,12.59
2023-04-30T21:36:35.806Z,12.56
2023-04-30T21:39:06.993Z,12.51
2023-04-30T21:41:39.628Z,12.42
2023-04-30T21:44:08.694Z,12.33
2023-04-30T21:46:38.678Z,12.37
2023-04-30T21:49:08.521Z,12.43
2023-04-30T21:51:38.369Z,12.44
2023-04-30T21:54:07.866Z,12.38
2023-04-30T21:56:40.357Z,12.41
2023-04-30T21:59:09.704Z,12.44
2023-04-30T22:01:38.941Z,12.47
2023-04-30T22:04:08.879Z,12.47
2023-04-30T22:06:37.872Z,12.45
2023-04-30T22:09:06.770Z,12.49
2023-04-30T22:11:37.075Z,12.49
2023-04-30T22:14:07.398Z,12.48
2023-04-30T22:16:36.886Z,12.50
2023-04-30T22:19:05.912Z,12.36
2023-04-30T22:21:34.925Z,12.37
2023-04-30T22:24:04.470Z,12.43
2023-04-30T22:26:34.533Z,12.45
2023-04-30T22:29:06.052Z,12.37
2023-04-30T22:31:36.026Z,12.28
2023-04-30T22:34:07.366Z,12.24
2023-04-30T22:36:37.133Z,12.15
2023-04-30T22:39:07.766Z,12.21
2023-04-30T22:41:38.548Z,12.25
2023-04-30T22:44:10.281Z,12.25
2023-04-30T22:46:40.641Z,12.11
2023-04-30T22:49:19.972Z,12.07
2023-04-30T22:51:57.214Z,11.99
2023-04-30T22:54:26.742Z,12.03
2023-04-30T22:56:56.021Z,12.03
2023-04-30T22:59:26.936Z,11.90
2023-04-30T23:01:57.792Z,11.91
2023-04-30T23:04:28.497Z,11.91
2023-04-30T23:06:57.233Z,11.90
2023-04-30T23:09:26.561Z,11.81
2023-04-30T23:11:57.902Z,11.74
2023-04-30T23:14:28.232Z,11.78
2023-04-30T23:16:58.170Z,11.66
2023-04-30T23:19:28.011Z,11.59
2023-04-30T23:21:57.544Z,11.65
2023-04-30T23:24:27.863Z,11.57
2023-04-30T23:26:57.799Z,11.52
2023-04-30T23:29:27.857Z,11.40
2023-04-30T23:31:56.854Z,11.43
2023-04-30T23:34:27.077Z,11.52
2023-04-30T23:36:56.692Z,11.51
2023-04-30T23:39:25.679Z,11.45
2023-04-30T23:41:56.213Z,11.47
2023-04-30T23:44:26.964Z,11.51
2023-04-30T23:46:57.020Z,11.51
2023-04-30T23:49:27.658Z,11.45
2023-04-30T23:51:58.432Z,11.32
2023-04-30T23:54:28.292Z,11.30
2023-04-30T23:56:59.428Z,11.22
2023-04-30T23:59:29.783Z,11.25
